createdAt,value
2018-04-01T00:01:30.115Z,36.50
2018-04-01T00:03:58.110Z,33.47
2018-04-01T00:06:26.188Z,35.73
2018-04-01T00:08:55.199Z,32.17
2018-04-01T00:11:23.259Z,34.87
2018-04-01T00:13:52.242Z,37.23
2018-04-01T00:16:21.246Z,34.37
2018-04-01T00:18:49.572Z,33.53
2018-04-01T00:21:18.119Z,33.83
2018-04-01T00:23:46.328Z,35.47
2018-04-01T00:26:14.247Z,37.87
2018-04-01T00:28:42.627Z,37.17
2018-04-01T00:31:10.217Z,35.30
2018-04-01T00:33:38.590Z,36.17
2018-04-01T00:36:06.166Z,38.93
2018-04-01T00:38:33.869Z,37.43
2018-04-01T00:41:02.213Z,39.43
2018-04-01T00:43:30.045Z,38.10
2018-04-01T00:45:58.816Z,37.97
2018-04-01T00:48:27.049Z,38.97
2018-04-01T00:50:55.884Z,37.03
2018-04-01T00:53:23.873Z,38.47
2018-04-01T00:55:52.776Z,39.80
2018-04-01T00:58:20.815Z,40.60
2018-04-01T01:00:52.902Z,39.10
2018-04-01T01:03:23.115Z,37.97
2018-04-01T01:05:51.520Z,37.67
2018-04-01T01:08:26.547Z,39.57
2018-04-01T01:10:54.575Z,39.90
2018-04-01T01:13:22.621Z,42.60
2018-04-01T01:16:00.728Z,39.50
2018-04-01T01:18:29.428Z,40.73
2018-04-01T01:21:01.390Z,42.30
2018-04-01T01:23:41.906Z,41.80
2018-04-01T01:26:09.614Z,37.33
2018-04-01T01:28:57.265Z,33.50
2018-04-01T01:31:25.619Z,36.50
2018-04-01T01:33:53.725Z,34.57
2018-04-01T01:36:28.215Z,39.10
2018-04-01T01:38:57.058Z,36.77
2018-04-01T01:41:34.594Z,34.23
2018-04-01T01:44:15.028Z,35.27
2018-04-01T01:46:42.791Z,39.40
2018-04-01T01:49:10.393Z,35.73
2018-04-01T01:51:41.765Z,40.20
2018-04-01T01:54:09.408Z,38.90
2018-04-01T01:56:37.825Z,37.17
2018-04-01T01:59:05.426Z,41.23
2018-04-01T02:01:33.133Z,39.50
2018-04-01T02:04:00.966Z,40.63
2018-04-01T02:06:29.055Z,41.33
2018-04-01T02:08:57.659Z,44.07
2018-04-01T02:11:25.965Z,47.57
2018-04-01T02:13:54.387Z,47.13
2018-04-01T02:16:23.095Z,46.00
2018-04-01T02:18:52.164Z,45.37
2018-04-01T02:21:20.561Z,45.83
2018-04-01T02:23:48.947Z,46.67
2018-04-01T02:26:17.259Z,47.20
2018-04-01T02:28:45.257Z,47.30
2018-04-01T02:31:13.068Z,46.47
2018-04-01T02:33:40.664Z,46.60
2018-04-01T02:36:08.291Z,44.70
2018-04-01T02:38:35.892Z,47.83
2018-04-01T02:41:03.464Z,45.17
2018-04-01T02:43:31.183Z,47.30
2018-04-01T02:45:59.169Z,45.40
2018-04-01T02:48:27.321Z,51.13
2018-04-01T02:50:55.390Z,48.40
2018-04-01T02:53:24.444Z,44.20
2018-04-01T02:55:53.827Z,43.43
2018-04-01T02:58:21.780Z,43.37
2018-04-01T03:00:50.912Z,45.90
2018-04-01T03:03:19.995Z,45.03
2018-04-01T03:05:48.525Z,43.97
2018-04-01T03:08:16.911Z,42.90
2018-04-01T03:10:44.924Z,41.27
2018-04-01T03:13:13.479Z,40.40
2018-04-01T03:15:41.079Z,43.90
2018-04-01T03:18:08.686Z,38.97
2018-04-01T03:20:36.294Z,39.90
2018-04-01T03:23:03.891Z,38.93
2018-04-01T03:25:31.553Z,35.50
2018-04-01T03:28:00.487Z,33.13
2018-04-01T03:30:28.726Z,36.53
2018-04-01T03:32:56.925Z,31.00
2018-04-01T03:35:24.836Z,32.57
2018-04-01T03:37:52.955Z,27.27
2018-04-01T03:40:21.895Z,26.50
2018-04-01T03:42:50.260Z,25.37
2018-04-01T03:45:18.624Z,23.87
2018-04-01T03:47:46.951Z,25.30
2018-04-01T03:50:14.908Z,23.07
2018-04-01T03:52:42.675Z,22.40
2018-04-01T03:55:10.304Z,19.63
2018-04-01T03:57:37.883Z,28.90
2018-04-01T04:00:05.453Z,22.80
2018-04-01T04:02:33.087Z,21.60
2018-04-01T04:05:01.495Z,21.50
2018-04-01T04:07:29.417Z,23.10
2018-04-01T04:09:58.255Z,19.70
2018-04-01T04:12:27.079Z,20.93
2018-04-01T04:14:55.352Z,20.87
2018-04-01T04:17:23.383Z,19.87
2018-04-01T04:19:52.253Z,16.30
2018-04-01T04:22:20.624Z,19.37
2018-04-01T04:24:49.497Z,19.20
2018-04-01T04:27:18.193Z,19.87
2018-04-01T04:29:46.433Z,19.00
2018-04-01T04:32:14.174Z,19.17
2018-04-01T04:34:42.777Z,18.87
2018-04-01T04:37:10.443Z,17.17
2018-04-01T04:39:38.183Z,17.70
2018-04-01T04:42:05.760Z,16.87
2018-04-01T04:44:33.368Z,16.07
2018-04-01T04:47:01.127Z,17.37
2018-04-01T04:49:29.197Z,18.20
2018-04-01T04:51:57.129Z,15.40
2018-04-01T04:54:25.566Z,16.57
2018-04-01T04:56:53.850Z,15.33
2018-04-01T04:59:22.089Z,16.43
2018-04-01T05:01:50.631Z,15.30
2018-04-01T05:04:19.674Z,15.87
2018-04-01T05:06:48.106Z,16.50
2018-04-01T05:09:17.489Z,17.83
2018-04-01T05:11:45.890Z,16.80
2018-04-01T05:14:13.764Z,16.97
2018-04-01T05:16:41.374Z,14.17
2018-04-01T05:19:09.752Z,17.63
2018-04-01T05:21:37.363Z,16.70
2018-04-01T05:24:05.009Z,14.70
2018-04-01T05:26:32.629Z,18.70
2018-04-01T05:29:00.256Z,16.67
2018-04-01T05:31:28.172Z,18.50
2018-04-01T05:33:56.298Z,17.03
2018-04-01T05:36:25.170Z,15.80
2018-04-01T05:38:54.166Z,16.60
2018-04-01T05:41:23.313Z,16.53
2018-04-01T05:43:51.664Z,17.17
2018-04-01T05:46:20.591Z,17.40
2018-04-01T05:48:49.062Z,19.60
2018-04-01T05:51:18.778Z,18.97
2018-04-01T05:53:47.006Z,17.57
2018-04-01T05:56:14.725Z,20.60
2018-04-01T05:58:42.527Z,16.60
2018-04-01T06:01:10.156Z,16.93
2018-04-01T06:03:37.747Z,17.10
2018-04-01T06:06:05.406Z,17.80
2018-04-01T06:08:33.105Z,19.80
2018-04-01T06:11:01.556Z,18.33
2018-04-01T06:13:29.449Z,19.73
2018-04-01T06:15:57.632Z,18.90
2018-04-01T06:18:25.824Z,17.07
2018-04-01T06:20:53.974Z,17.33
2018-04-01T06:23:22.111Z,19.07
2018-04-01T06:25:51.307Z,19.17
2018-04-01T06:28:19.979Z,19.50
2018-04-01T06:30:48.809Z,17.60
2018-04-01T06:33:17.484Z,18.97
2018-04-01T06:35:47.324Z,19.20
2018-04-01T06:38:16.376Z,16.80
2018-04-01T06:40:45.130Z,19.03
2018-04-01T06:43:13.620Z,19.50
2018-04-01T06:45:41.225Z,20.00
2018-04-01T06:48:08.812Z,20.47
2018-04-01T06:50:37.164Z,19.10
2018-04-01T06:53:04.743Z,18.57
2018-04-01T06:55:32.483Z,18.60
2018-04-01T06:58:00.350Z,18.07
2018-04-01T07:00:29.007Z,18.30
2018-04-01T07:02:58.964Z,17.70
2018-04-01T07:05:27.526Z,18.27
2018-04-01T07:07:55.578Z,20.70
2018-04-01T07:10:23.813Z,18.00
2018-04-01T07:12:51.894Z,19.23
2018-04-01T07:15:20.041Z,19.20
2018-04-01T07:17:48.135Z,14.73
2018-04-01T07:20:16.281Z,8.80
2018-04-01T07:22:44.131Z,6.47
2018-04-01T07:25:12.577Z,6.23
2018-04-01T07:27:40.198Z,6.60
2018-04-01T07:30:07.858Z,6.50
2018-04-01T07:32:35.465Z,6.47
2018-04-01T07:35:03.117Z,12.23
2018-04-01T07:37:31.022Z,5.27
2018-04-01T07:39:58.941Z,4.27
2018-04-01T07:42:28.111Z,4.63
2018-04-01T07:44:56.921Z,3.10
2018-04-01T07:47:26.035Z,3.17
2018-04-01T07:49:54.766Z,14.43
2018-04-01T07:52:22.752Z,2.73
2018-04-01T07:54:51.179Z,2.30
2018-04-01T07:57:19.181Z,3.00
2018-04-01T07:59:48.631Z,3.27
2018-04-01T08:02:16.878Z,3.33
2018-04-01T08:04:44.563Z,2.97
2018-04-01T08:07:12.698Z,2.63
2018-04-01T08:09:40.347Z,2.67
2018-04-01T08:12:07.960Z,3.10
2018-04-01T08:14:35.637Z,3.03
2018-04-01T08:17:03.235Z,3.10
2018-04-01T08:19:30.999Z,3.83
2018-04-01T08:21:59.992Z,2.50
2018-04-01T08:24:30.333Z,3.40
2018-04-01T08:26:58.945Z,4.17
2018-04-01T08:29:27.614Z,2.37
2018-04-01T08:31:55.858Z,2.93
2018-04-01T08:34:26.239Z,3.10
2018-04-01T08:36:54.396Z,2.43
2018-04-01T08:39:22.473Z,3.90
2018-04-01T08:41:50.565Z,3.37
2018-04-01T08:44:19.000Z,2.90
2018-04-01T08:46:47.611Z,3.23
2018-04-01T08:49:15.977Z,3.10
2018-04-01T08:51:43.983Z,2.83
2018-04-01T08:54:11.609Z,3.23
2018-04-01T08:56:39.302Z,2.60
2018-04-01T08:59:07.143Z,2.87
2018-04-01T09:01:34.759Z,2.50
2018-04-01T09:04:02.486Z,2.53
2018-04-01T09:06:31.043Z,2.40
2018-04-01T09:08:59.265Z,2.00
2018-04-01T09:11:28.762Z,2.00
2018-04-01T09:13:57.030Z,2.17
2018-04-01T09:16:27.447Z,1.43
2018-04-01T09:18:57.051Z,1.10
2018-04-01T09:21:26.408Z,1.20
2018-04-01T09:23:54.958Z,1.00
2018-04-01T09:26:27.914Z,1.40
2018-04-01T09:28:57.256Z,2.43
2018-04-01T09:31:25.537Z,1.40
2018-04-01T09:33:53.519Z,1.43
2018-04-01T09:36:21.397Z,1.00
2018-04-01T09:38:49.799Z,1.20
2018-04-01T09:41:18.236Z,0.93
2018-04-01T09:43:46.300Z,1.27
2018-04-01T09:46:14.200Z,0.87
2018-04-01T09:48:41.821Z,1.20
2018-04-01T09:51:09.761Z,6.30
2018-04-01T09:53:37.386Z,1.00
2018-04-01T09:56:04.992Z,0.80
2018-04-01T09:58:33.356Z,0.80
2018-04-01T10:01:01.505Z,0.90
2018-04-01T10:03:29.609Z,0.90
2018-04-01T10:05:58.565Z,0.97
2018-04-01T10:08:27.701Z,1.00
2018-04-01T10:10:57.172Z,1.10
2018-04-01T10:13:27.379Z,1.17
2018-04-01T10:16:02.039Z,1.57
2018-04-01T10:18:32.373Z,1.30
2018-04-01T10:21:00.695Z,1.30
2018-04-01T10:23:29.143Z,1.37
2018-04-01T10:25:58.570Z,1.10
2018-04-01T10:28:27.960Z,1.23
2018-04-01T10:30:56.567Z,1.00
2018-04-01T10:33:25.997Z,0.90
2018-04-01T10:35:55.193Z,1.37
2018-04-01T10:38:23.920Z,0.97
2018-04-01T10:40:52.739Z,1.07
2018-04-01T10:43:21.879Z,1.17
2018-04-01T10:45:51.038Z,1.20
2018-04-01T10:48:20.160Z,1.10
2018-04-01T10:50:49.148Z,1.77
2018-04-01T10:53:18.466Z,1.50
2018-04-01T10:55:47.904Z,1.27
2018-04-01T10:58:16.088Z,1.70
2018-04-01T11:00:43.800Z,2.03
2018-04-01T11:03:21.005Z,3.20
2018-04-01T11:05:49.110Z,3.37
2018-04-01T11:08:18.293Z,4.00
2018-04-01T11:10:47.560Z,3.30
2018-04-01T11:13:15.380Z,4.10
2018-04-01T11:15:43.241Z,4.00
2018-04-01T11:18:11.566Z,4.83
2018-04-01T11:20:39.168Z,10.50
2018-04-01T11:23:06.764Z,5.70
2018-04-01T11:25:34.346Z,6.97
2018-04-01T11:28:02.684Z,8.90
2018-04-01T11:30:30.331Z,5.83
2018-04-01T11:32:58.072Z,5.77
2018-04-01T11:35:25.908Z,8.97
2018-04-01T11:37:53.770Z,9.27
2018-04-01T11:40:22.462Z,8.80
2018-04-01T11:42:50.446Z,9.00
2018-04-01T11:45:18.482Z,6.80
2018-04-01T11:47:46.846Z,7.47
2018-04-01T11:50:14.587Z,7.63
2018-04-01T11:52:42.614Z,7.50
2018-04-01T11:55:10.183Z,7.90
2018-04-01T11:57:38.547Z,7.60
2018-04-01T12:00:06.120Z,6.10
2018-04-01T12:02:33.729Z,7.27
2018-04-01T12:05:01.378Z,7.17
2018-04-01T12:07:29.156Z,6.30
2018-04-01T12:09:57.381Z,8.63
2018-04-01T12:12:26.405Z,7.30
2018-04-01T12:14:54.350Z,7.03
2018-04-01T12:17:22.216Z,8.10
2018-04-01T12:19:51.396Z,10.43
2018-04-01T12:22:20.321Z,8.00
2018-04-01T12:24:48.903Z,9.43
2018-04-01T12:27:18.240Z,8.43
2018-04-01T12:29:46.380Z,7.77
2018-04-01T12:32:14.068Z,9.03
2018-04-01T12:34:41.848Z,8.33
2018-04-01T12:37:10.183Z,7.30
2018-04-01T12:39:37.803Z,8.17
2018-04-01T12:42:05.383Z,7.13
2018-04-01T12:44:34.627Z,7.00
2018-04-01T12:47:02.211Z,9.00
2018-04-01T12:49:30.517Z,8.13
2018-04-01T12:51:59.253Z,7.27
2018-04-01T12:54:27.865Z,7.50
2018-04-01T12:56:56.493Z,7.90
2018-04-01T12:59:24.583Z,8.60
2018-04-01T13:01:53.385Z,9.80
2018-04-01T13:04:26.214Z,9.67
2018-04-01T13:06:54.285Z,10.50
2018-04-01T13:09:22.413Z,9.73
2018-04-01T13:11:51.666Z,10.60
2018-04-01T13:14:20.932Z,11.10
2018-04-01T13:16:49.374Z,10.57
2018-04-01T13:19:17.537Z,11.90
2018-04-01T13:21:46.905Z,11.87
2018-04-01T13:24:14.633Z,11.10
2018-04-01T13:26:43.143Z,13.00
2018-04-01T13:29:10.754Z,13.57
2018-04-01T13:31:38.317Z,14.13
2018-04-01T13:34:05.995Z,13.73
2018-04-01T13:36:33.615Z,16.00
2018-04-01T13:39:01.220Z,14.17
2018-04-01T13:41:28.887Z,14.63
2018-04-01T13:43:56.903Z,15.23
2018-04-01T13:46:26.644Z,14.37
2018-04-01T13:48:54.664Z,15.17
2018-04-01T13:51:23.421Z,14.17
2018-04-01T13:53:51.563Z,15.30
2018-04-01T13:56:20.166Z,13.53
2018-04-01T13:58:50.741Z,14.33
2018-04-01T14:01:20.599Z,16.20
2018-04-01T14:03:49.837Z,16.47
2018-04-01T14:06:19.367Z,18.23
2018-04-01T14:08:50.351Z,16.10
2018-04-01T14:11:20.641Z,14.40
2018-04-01T14:13:49.929Z,16.90
2018-04-01T14:16:20.768Z,17.27
2018-04-01T14:18:49.936Z,15.03
2018-04-01T14:21:19.100Z,16.00
2018-04-01T14:23:48.298Z,16.40
2018-04-01T14:26:16.935Z,15.13
2018-04-01T14:28:44.648Z,17.23
2018-04-01T14:31:12.500Z,15.53
2018-04-01T14:33:40.226Z,16.13
2018-04-01T14:36:07.826Z,16.77
2018-04-01T14:38:35.431Z,14.67
2018-04-01T14:41:03.048Z,13.90
2018-04-01T14:43:31.474Z,14.20
2018-04-01T14:45:59.295Z,12.93
2018-04-01T14:48:27.312Z,13.30
2018-04-01T14:50:55.992Z,13.23
2018-04-01T14:53:23.930Z,13.80
2018-04-01T14:55:51.967Z,11.10
2018-04-01T14:58:20.492Z,11.77
2018-04-01T15:00:49.990Z,10.93
2018-04-01T15:03:18.202Z,11.27
2018-04-01T15:05:47.529Z,11.67
2018-04-01T15:08:15.385Z,12.17
2018-04-01T15:10:43.881Z,11.33
2018-04-01T15:13:11.506Z,13.70
2018-04-01T15:15:39.197Z,13.90
2018-04-01T15:18:06.801Z,14.33
2018-04-01T15:20:35.232Z,14.43
2018-04-01T15:23:02.895Z,14.60
2018-04-01T15:25:30.494Z,13.03
2018-04-01T15:27:58.495Z,13.80
2018-04-01T15:30:26.498Z,13.10
2018-04-01T15:32:54.500Z,13.37
2018-04-01T15:35:22.593Z,12.47
2018-04-01T15:37:50.525Z,11.43
2018-04-01T15:40:20.315Z,13.63
2018-04-01T15:42:48.605Z,13.90
2018-04-01T15:45:18.067Z,14.30
2018-04-01T15:47:46.781Z,14.33
2018-04-01T15:50:15.772Z,14.47
2018-04-01T15:52:43.523Z,16.97
2018-04-01T15:55:11.095Z,18.30
2018-04-01T15:57:38.733Z,16.90
2018-04-01T16:00:07.631Z,18.90
2018-04-01T16:02:36.634Z,19.50
2018-04-01T16:05:05.483Z,18.30
2018-04-01T16:07:34.064Z,19.80
2018-04-01T16:10:01.712Z,18.67
2018-04-01T16:12:29.276Z,21.30
2018-04-01T16:14:57.013Z,18.97
2018-04-01T16:17:24.756Z,21.90
2018-04-01T16:19:52.650Z,21.87
2018-04-01T16:22:20.672Z,21.60
2018-04-01T16:24:49.643Z,20.40
2018-04-01T16:27:18.764Z,22.10
2018-04-01T16:29:46.936Z,22.17
2018-04-01T16:32:14.670Z,23.33
2018-04-01T16:34:42.852Z,22.67
2018-04-01T16:37:11.246Z,23.70
2018-04-01T16:39:39.596Z,25.30
2018-04-01T16:42:07.167Z,23.93
2018-04-01T16:44:34.725Z,24.70
2018-04-01T16:47:02.296Z,25.70
2018-04-01T16:49:29.887Z,24.23
2018-04-01T16:51:58.866Z,26.20
2018-04-01T16:54:27.567Z,24.37
2018-04-01T16:56:55.551Z,26.60
2018-04-01T16:59:23.472Z,25.83
2018-04-01T17:01:52.128Z,29.17
2018-04-01T17:04:21.152Z,26.00
2018-04-01T17:06:50.057Z,25.93
2018-04-01T17:09:18.393Z,25.10
2018-04-01T17:11:46.496Z,34.80
2018-04-01T17:14:14.862Z,26.30
2018-04-01T17:16:42.619Z,27.90
2018-04-01T17:19:10.230Z,26.90
2018-04-01T17:21:38.636Z,26.13
2018-04-01T17:24:06.220Z,27.57
2018-04-01T17:26:33.801Z,26.00
2018-04-01T17:29:01.392Z,25.90
2018-04-01T17:31:29.870Z,26.13
2018-04-01T17:33:57.822Z,28.13
2018-04-01T17:36:25.720Z,29.10
2018-04-01T17:38:53.570Z,28.47
2018-04-01T17:41:21.368Z,27.00
2018-04-01T17:43:49.441Z,26.67
2018-04-01T17:46:17.462Z,26.40
2018-04-01T17:48:45.484Z,29.50
2018-04-01T17:51:13.195Z,27.30
2018-04-01T17:53:41.511Z,28.57
2018-04-01T17:56:09.123Z,26.70
2018-04-01T17:58:36.688Z,25.80
2018-04-01T18:01:04.371Z,26.30
2018-04-01T18:03:32.046Z,27.63
2018-04-01T18:05:59.623Z,24.93
2018-04-01T18:08:28.192Z,24.17
2018-04-01T18:10:55.985Z,22.23
2018-04-01T18:13:24.165Z,21.87
2018-04-01T18:15:52.297Z,23.33
2018-04-01T18:18:20.218Z,21.90
2018-04-01T18:20:48.902Z,22.00
2018-04-01T18:23:16.766Z,21.80
2018-04-01T18:25:44.550Z,21.40
2018-04-01T18:28:12.233Z,20.70
2018-04-01T18:30:39.797Z,21.47
2018-04-01T18:33:07.375Z,22.50
2018-04-01T18:35:34.939Z,25.00
2018-04-01T18:38:02.563Z,28.90
2018-04-01T18:40:30.168Z,34.17
2018-04-01T18:42:59.037Z,38.90
2018-04-01T18:45:27.624Z,40.53
2018-04-01T18:47:55.515Z,42.30
2018-04-01T18:50:24.081Z,39.67
2018-04-01T18:52:51.818Z,42.00
2018-04-01T18:55:24.762Z,38.30
2018-04-01T18:57:53.481Z,49.00
2018-04-01T19:00:21.292Z,49.00
2018-04-01T19:02:49.833Z,50.07
2018-04-01T19:05:17.700Z,40.43
2018-04-01T19:07:45.709Z,42.80
2018-04-01T19:10:13.526Z,40.00
2018-04-01T19:12:41.927Z,36.10
2018-04-01T19:15:10.367Z,39.33
2018-04-01T19:17:38.516Z,39.33
2018-04-01T19:20:07.739Z,39.20
2018-04-01T19:22:36.043Z,42.00
2018-04-01T19:25:04.491Z,46.37
2018-04-01T19:27:32.810Z,54.13
2018-04-01T19:30:01.175Z,55.20
2018-04-01T19:32:29.631Z,49.67
2018-04-01T19:34:58.292Z,49.80
2018-04-01T19:37:27.581Z,49.33
2018-04-01T19:39:56.319Z,50.17
2018-04-01T19:42:24.884Z,50.37
2018-04-01T19:44:53.294Z,48.00
2018-04-01T19:47:21.946Z,45.83
2018-04-01T19:49:54.558Z,45.67
2018-04-01T19:52:23.173Z,46.33
2018-04-01T19:54:51.780Z,45.03
2018-04-01T19:57:20.327Z,42.07
2018-04-01T19:59:49.194Z,41.03
2018-04-01T20:02:17.778Z,44.20
2018-04-01T20:04:47.754Z,44.30
2018-04-01T20:07:16.340Z,44.13
2018-04-01T20:09:45.736Z,44.67
2018-04-01T20:12:14.091Z,43.13
2018-04-01T20:14:42.565Z,43.43
2018-04-01T20:17:10.867Z,43.10
2018-04-01T20:19:39.360Z,40.23
2018-04-01T20:22:07.688Z,39.67
2018-04-01T20:24:36.084Z,38.23
2018-04-01T20:27:04.439Z,46.50
2018-04-01T20:29:32.861Z,46.93
2018-04-01T20:32:01.278Z,47.43
2018-04-01T20:34:29.619Z,41.93
2018-04-01T20:36:58.017Z,44.10
2018-04-01T20:39:27.028Z,42.70
2018-04-01T20:41:55.727Z,45.77
2018-04-01T20:44:24.461Z,49.27
2018-04-01T20:46:53.230Z,51.40
2018-04-01T20:49:22.692Z,56.30
2018-04-01T20:51:51.370Z,50.67
2018-04-01T20:54:20.139Z,50.47
2018-04-01T20:56:49.646Z,48.30
2018-04-01T20:59:18.280Z,48.87
2018-04-01T21:01:47.809Z,48.10
2018-04-01T21:04:16.595Z,47.00
2018-04-01T21:06:45.142Z,52.70
2018-04-01T21:09:13.686Z,43.97
2018-04-01T21:11:42.064Z,46.70
2018-04-01T21:14:11.144Z,46.80
2018-04-01T21:16:39.479Z,43.63
2018-04-01T21:19:07.819Z,43.10
2018-04-01T21:21:36.984Z,43.83
2018-04-01T21:24:05.291Z,41.13
2018-04-01T21:26:33.755Z,41.20
2018-04-01T21:29:02.064Z,43.43
2018-04-01T21:31:30.371Z,42.90
2018-04-01T21:33:58.738Z,47.00
2018-04-01T21:36:27.240Z,47.13
2018-04-01T21:38:55.742Z,48.27
2018-04-01T21:41:24.456Z,45.00
2018-04-01T21:43:53.276Z,50.43
2018-04-01T21:46:22.273Z,50.30
2018-04-01T21:48:51.392Z,51.40
2018-04-01T21:51:20.690Z,51.10
2018-04-01T21:53:49.709Z,53.13
2018-04-01T21:56:18.783Z,52.20
2018-04-01T21:58:47.404Z,50.40
2018-04-01T22:01:17.378Z,52.00
2018-04-01T22:03:46.336Z,50.63
2018-04-01T22:06:15.992Z,48.03
2018-04-01T22:08:44.602Z,45.33
2018-04-01T22:11:13.808Z,47.43
2018-04-01T22:13:42.471Z,49.03
2018-04-01T22:16:11.666Z,50.33
2018-04-01T22:18:39.971Z,51.43
2018-04-01T22:21:09.035Z,49.30
2018-04-01T22:23:37.336Z,47.73
2018-04-01T22:26:05.695Z,47.77
2018-04-01T22:28:34.059Z,50.13
2018-04-01T22:31:03.164Z,50.37
2018-04-01T22:33:32.247Z,48.70
2018-04-01T22:36:00.670Z,50.17
2018-04-01T22:38:29.331Z,49.07
2018-04-01T22:40:57.944Z,50.10
2018-04-01T22:43:27.238Z,45.03
2018-04-01T22:45:56.750Z,49.30
2018-04-01T22:48:25.539Z,48.97
2018-04-01T22:50:54.194Z,50.00
2018-04-01T22:53:23.900Z,49.00
2018-04-01T22:55:52.744Z,51.13
2018-04-01T22:58:22.207Z,50.70
2018-04-01T23:00:51.195Z,48.37
2018-04-01T23:03:19.845Z,49.30
2018-04-01T23:05:49.672Z,44.13
2018-04-01T23:08:19.690Z,43.07
2018-04-01T23:10:48.543Z,47.20
2018-04-01T23:13:17.449Z,45.07
2018-04-01T23:15:46.354Z,50.10
2018-04-01T23:18:14.954Z,45.07
2018-04-01T23:20:43.561Z,46.00
2018-04-01T23:23:11.923Z,49.47
2018-04-01T23:25:40.252Z,56.37
2018-04-01T23:28:08.580Z,55.57
2018-04-01T23:30:37.722Z,56.50
2018-04-01T23:33:06.853Z,54.33
2018-04-01T23:35:35.183Z,58.13
2018-04-01T23:38:04.311Z,60.73
2018-04-01T23:40:33.428Z,57.40
2018-04-01T23:43:01.764Z,53.97
2018-04-01T23:45:30.192Z,53.47
2018-04-01T23:47:58.950Z,54.30
2018-04-01T23:50:27.624Z,53.20
2018-04-01T23:52:57.078Z,60.30
2018-04-01T23:55:25.642Z,55.87
2018-04-01T23:57:54.378Z,54.97
